Terminal Aerodrome Forecast
Issued by NWS

Home | Current Version | Previous Version | Text Only | Print | Product List | Glossary On
Versions: 1 2 3 4 5 6 7 8 9 10 11 12 13 14 15 16 17 18
000
FTAK31 PANC 251122
TAFACD
TAF
PACD 251122Z 2512/2612 21025G34KT P6SM VCSH SCT040 BKN100
     FM260200 23022G30KT 5SM -SHRA SCT015 OVC025
     FM260800 25015KT P6SM -SHRA BKN035=

USA.gov is the U.S. government's official web portal to all federal, state and local government web resources and services.